sensor_id;sensor_type;location;lat;lon;timestamp;P1;durP1;ratioP1;P2;durP2;ratioP2
7669;SDS011;3877;42.562;27.636;2024-03-06T00:02:05;12.23;;;6.43;;
7669;SDS011;3877;42.562;27.636;2024-03-06T00:04:33;12.73;;;6.00;;
7669;SDS011;3877;42.562;27.636;2024-03-06T00:07:01;10.23;;;5.97;;
7669;SDS011;3877;42.562;27.636;2024-03-06T00:09:27;13.20;;;7.07;;
7669;SDS011;3877;42.562;27.636;2024-03-06T00:11:54;16.37;;;6.20;;
7669;SDS011;3877;42.562;27.636;2024-03-06T00:14:25;17.17;;;6.10;;
7669;SDS011;3877;42.562;27.636;2024-03-06T00:16:52;16.40;;;6.50;;
7669;SDS011;3877;42.562;27.636;2024-03-06T00:19:21;19.90;;;6.27;;
7669;SDS011;3877;42.562;27.636;2024-03-06T00:21:50;10.77;;;5.73;;
7669;SDS011;3877;42.562;27.636;2024-03-06T00:24:17;11.87;;;5.93;;
7669;SDS011;3877;42.562;27.636;2024-03-06T00:26:44;13.30;;;6.10;;
7669;SDS011;3877;42.562;27.636;2024-03-06T00:29:12;10.27;;;6.13;;
7669;SDS011;3877;42.562;27.636;2024-03-06T00:31:42;11.50;;;6.53;;
7669;SDS011;3877;42.562;27.636;2024-03-06T00:34:09;12.13;;;6.20;;
7669;SDS011;3877;42.562;27.636;2024-03-06T00:36:36;13.10;;;5.90;;
7669;SDS011;3877;42.562;27.636;2024-03-06T00:39:05;13.13;;;5.97;;
7669;SDS011;3877;42.562;27.636;2024-03-06T00:41:34;17.03;;;6.53;;
7669;SDS011;3877;42.562;27.636;2024-03-06T00:44:01;14.23;;;5.63;;
7669;SDS011;3877;42.562;27.636;2024-03-06T00:46:28;12.63;;;5.60;;
7669;SDS011;3877;42.562;27.636;2024-03-06T00:48:55;15.27;;;6.40;;
7669;SDS011;3877;42.562;27.636;2024-03-06T00:51:22;14.37;;;5.70;;
7669;SDS011;3877;42.562;27.636;2024-03-06T00:53:49;15.67;;;6.53;;
7669;SDS011;3877;42.562;27.636;2024-03-06T00:56:18;11.07;;;6.17;;
7669;SDS011;3877;42.562;27.636;2024-03-06T00:58:45;16.50;;;5.50;;
7669;SDS011;3877;42.562;27.636;2024-03-06T01:01:12;14.67;;;6.37;;
7669;SDS011;3877;42.562;27.636;2024-03-06T01:03:39;16.67;;;5.90;;
7669;SDS011;3877;42.562;27.636;2024-03-06T01:06:06;13.60;;;5.90;;
7669;SDS011;3877;42.562;27.636;2024-03-06T01:08:33;16.93;;;6.13;;
7669;SDS011;3877;42.562;27.636;2024-03-06T01:11:01;19.90;;;6.67;;
7669;SDS011;3877;42.562;27.636;2024-03-06T01:13:31;18.10;;;6.90;;
7669;SDS011;3877;42.562;27.636;2024-03-06T01:15:58;16.10;;;6.60;;
7669;SDS011;3877;42.562;27.636;2024-03-06T01:18:24;16.50;;;6.93;;
7669;SDS011;3877;42.562;27.636;2024-03-06T01:20:51;14.10;;;6.17;;
7669;SDS011;3877;42.562;27.636;2024-03-06T01:23:18;13.97;;;6.80;;
7669;SDS011;3877;42.562;27.636;2024-03-06T01:25:45;12.43;;;6.90;;
7669;SDS011;3877;42.562;27.636;2024-03-06T01:28:12;13.93;;;6.70;;
7669;SDS011;3877;42.562;27.636;2024-03-06T01:30:40;13.77;;;7.17;;
7669;SDS011;3877;42.562;27.636;2024-03-06T01:33:07;23.27;;;8.07;;
7669;SDS011;3877;42.562;27.636;2024-03-06T01:35:35;10.73;;;6.30;;
7669;SDS011;3877;42.562;27.636;2024-03-06T01:38:02;16.77;;;7.33;;
7669;SDS011;3877;42.562;27.636;2024-03-06T01:40:29;13.37;;;6.90;;
7669;SDS011;3877;42.562;27.636;2024-03-06T01:42:56;14.87;;;6.73;;
7669;SDS011;3877;42.562;27.636;2024-03-06T01:45:23;17.13;;;7.23;;
7669;SDS011;3877;42.562;27.636;2024-03-06T01:47:51;13.00;;;6.93;;
7669;SDS011;3877;42.562;27.636;2024-03-06T01:50:19;17.70;;;6.57;;
7669;SDS011;3877;42.562;27.636;2024-03-06T01:52:46;20.60;;;7.27;;
7669;SDS011;3877;42.562;27.636;2024-03-06T01:55:13;12.37;;;6.97;;
7669;SDS011;3877;42.562;27.636;2024-03-06T01:57:40;18.80;;;7.57;;
7669;SDS011;3877;42.562;27.636;2024-03-06T02:00:08;13.60;;;6.50;;
7669;SDS011;3877;42.562;27.636;2024-03-06T02:02:39;17.60;;;7.70;;
7669;SDS011;3877;42.562;27.636;2024-03-06T02:05:09;15.30;;;7.30;;
7669;SDS011;3877;42.562;27.636;2024-03-06T02:07:39;16.13;;;7.40;;
7669;SDS011;3877;42.562;27.636;2024-03-06T02:10:08;16.77;;;7.03;;
7669;SDS011;3877;42.562;27.636;2024-03-06T02:12:37;15.63;;;7.23;;
7669;SDS011;3877;42.562;27.636;2024-03-06T02:15:05;14.80;;;7.17;;
7669;SDS011;3877;42.562;27.636;2024-03-06T02:17:32;14.33;;;7.63;;
7669;SDS011;3877;42.562;27.636;2024-03-06T02:20:00;14.93;;;6.90;;
7669;SDS011;3877;42.562;27.636;2024-03-06T02:22:32;15.63;;;7.80;;
7669;SDS011;3877;42.562;27.636;2024-03-06T02:24:59;17.23;;;7.60;;
7669;SDS011;3877;42.562;27.636;2024-03-06T02:27:26;13.60;;;7.37;;
7669;SDS011;3877;42.562;27.636;2024-03-06T02:29:53;18.43;;;8.10;;
7669;SDS011;3877;42.562;27.636;2024-03-06T02:32:20;14.10;;;7.63;;
7669;SDS011;3877;42.562;27.636;2024-03-06T02:34:49;16.80;;;7.97;;
7669;SDS011;3877;42.562;27.636;2024-03-06T02:37:16;15.57;;;8.10;;
7669;SDS011;3877;42.562;27.636;2024-03-06T02:39:44;24.07;;;8.90;;
7669;SDS011;3877;42.562;27.636;2024-03-06T02:42:12;15.53;;;8.10;;
7669;SDS011;3877;42.562;27.636;2024-03-06T02:44:38;13.83;;;7.30;;
7669;SDS011;3877;42.562;27.636;2024-03-06T02:47:05;19.57;;;8.03;;
7669;SDS011;3877;42.562;27.636;2024-03-06T02:49:33;16.17;;;8.27;;
7669;SDS011;3877;42.562;27.636;2024-03-06T02:52:00;16.93;;;8.70;;
7669;SDS011;3877;42.562;27.636;2024-03-06T02:54:28;18.60;;;9.07;;
7669;SDS011;3877;42.562;27.636;2024-03-06T02:56:57;18.03;;;8.27;;
7669;SDS011;3877;42.562;27.636;2024-03-06T02:59:24;20.80;;;9.00;;
7669;SDS011;3877;42.562;27.636;2024-03-06T03:01:51;12.67;;;7.80;;
7669;SDS011;3877;42.562;27.636;2024-03-06T03:04:19;18.63;;;8.23;;
7669;SDS011;3877;42.562;27.636;2024-03-06T03:06:45;15.10;;;8.47;;
7669;SDS011;3877;42.562;27.636;2024-03-06T03:09:12;18.50;;;9.23;;
7669;SDS011;3877;42.562;27.636;2024-03-06T03:11:40;20.93;;;10.40;;
7669;SDS011;3877;42.562;27.636;2024-03-06T03:14:09;18.07;;;8.90;;
7669;SDS011;3877;42.562;27.636;2024-03-06T03:16:37;20.40;;;8.57;;
7669;SDS011;3877;42.562;27.636;2024-03-06T03:19:04;21.47;;;9.20;;
7669;SDS011;3877;42.562;27.636;2024-03-06T03:21:30;18.03;;;9.17;;
7669;SDS011;3877;42.562;27.636;2024-03-06T03:23:57;16.60;;;8.40;;
7669;SDS011;3877;42.562;27.636;2024-03-06T03:26:24;21.53;;;9.37;;
7669;SDS011;3877;42.562;27.636;2024-03-06T03:28:59;17.87;;;8.90;;
7669;SDS011;3877;42.562;27.636;2024-03-06T03:31:28;17.73;;;9.13;;
7669;SDS011;3877;42.562;27.636;2024-03-06T03:33:55;20.73;;;9.63;;
7669;SDS011;3877;42.562;27.636;2024-03-06T03:36:21;17.43;;;8.73;;
7669;SDS011;3877;42.562;27.636;2024-03-06T03:38:48;16.73;;;9.20;;
7669;SDS011;3877;42.562;27.636;2024-03-06T03:41:15;18.53;;;9.80;;
7669;SDS011;3877;42.562;27.636;2024-03-06T03:43:43;15.43;;;9.00;;
7669;SDS011;3877;42.562;27.636;2024-03-06T03:46:10;23.60;;;8.90;;
7669;SDS011;3877;42.562;27.636;2024-03-06T03:48:39;17.33;;;8.13;;
7669;SDS011;3877;42.562;27.636;2024-03-06T03:51:07;20.67;;;8.70;;
7669;SDS011;3877;42.562;27.636;2024-03-06T03:53:34;17.93;;;8.53;;
7669;SDS011;3877;42.562;27.636;2024-03-06T03:56:01;15.80;;;8.73;;
7669;SDS011;3877;42.562;27.636;2024-03-06T03:58:28;15.63;;;8.40;;
7669;SDS011;3877;42.562;27.636;2024-03-06T04:00:55;17.47;;;9.30;;
7669;SDS011;3877;42.562;27.636;2024-03-06T04:03:22;17.77;;;9.50;;
7669;SDS011;3877;42.562;27.636;2024-03-06T04:05:51;14.87;;;8.30;;
7669;SDS011;3877;42.562;27.636;2024-03-06T04:08:18;15.60;;;7.50;;
7669;SDS011;3877;42.562;27.636;2024-03-06T04:10:45;16.97;;;8.50;;
7669;SDS011;3877;42.562;27.636;2024-03-06T04:13:12;16.70;;;8.00;;
7669;SDS011;3877;42.562;27.636;2024-03-06T04:15:39;19.87;;;8.43;;
7669;SDS011;3877;42.562;27.636;2024-03-06T04:18:06;13.07;;;8.10;;
7669;SDS011;3877;42.562;27.636;2024-03-06T04:20:33;19.07;;;7.93;;
7669;SDS011;3877;42.562;27.636;2024-03-06T04:23:02;13.87;;;8.23;;
7669;SDS011;3877;42.562;27.636;2024-03-06T04:25:29;20.83;;;8.60;;
7669;SDS011;3877;42.562;27.636;2024-03-06T04:27:57;19.83;;;8.40;;
7669;SDS011;3877;42.562;27.636;2024-03-06T04:30:24;14.90;;;8.80;;
7669;SDS011;3877;42.562;27.636;2024-03-06T04:32:51;26.83;;;8.90;;
7669;SDS011;3877;42.562;27.636;2024-03-06T04:35:18;22.37;;;9.03;;
7669;SDS011;3877;42.562;27.636;2024-03-06T04:37:46;20.97;;;8.23;;
7669;SDS011;3877;42.562;27.636;2024-03-06T04:40:14;24.60;;;9.10;;
7669;SDS011;3877;42.562;27.636;2024-03-06T04:42:45;17.60;;;8.57;;
7669;SDS011;3877;42.562;27.636;2024-03-06T04:45:14;19.30;;;7.90;;
7669;SDS011;3877;42.562;27.636;2024-03-06T04:47:41;23.30;;;9.67;;
7669;SDS011;3877;42.562;27.636;2024-03-06T04:50:08;16.37;;;8.20;;
7669;SDS011;3877;42.562;27.636;2024-03-06T04:52:36;15.03;;;8.00;;
7669;SDS011;3877;42.562;27.636;2024-03-06T04:55:03;22.40;;;8.77;;
7669;SDS011;3877;42.562;27.636;2024-03-06T04:57:31;23.87;;;8.80;;
7669;SDS011;3877;42.562;27.636;2024-03-06T04:59:58;25.30;;;8.50;;
7669;SDS011;3877;42.562;27.636;2024-03-06T05:02:27;33.33;;;9.33;;
7669;SDS011;3877;42.562;27.636;2024-03-06T05:04:54;21.00;;;8.80;;
7669;SDS011;3877;42.562;27.636;2024-03-06T05:07:21;25.57;;;8.70;;
7669;SDS011;3877;42.562;27.636;2024-03-06T05:09:49;20.40;;;10.30;;
7669;SDS011;3877;42.562;27.636;2024-03-06T05:12:15;18.47;;;10.60;;
7669;SDS011;3877;42.562;27.636;2024-03-06T05:14:44;18.43;;;10.03;;
7669;SDS011;3877;42.562;27.636;2024-03-06T05:17:11;21.80;;;8.93;;
7669;SDS011;3877;42.562;27.636;2024-03-06T05:19:38;18.33;;;8.77;;
7669;SDS011;3877;42.562;27.636;2024-03-06T05:22:05;13.37;;;8.40;;
7669;SDS011;3877;42.562;27.636;2024-03-06T05:24:32;20.90;;;9.80;;
7669;SDS011;3877;42.562;27.636;2024-03-06T05:26:59;21.30;;;9.53;;
7669;SDS011;3877;42.562;27.636;2024-03-06T05:29:26;19.30;;;8.80;;
7669;SDS011;3877;42.562;27.636;2024-03-06T05:31:54;14.97;;;8.63;;
7669;SDS011;3877;42.562;27.636;2024-03-06T05:34:21;16.67;;;9.53;;
7669;SDS011;3877;42.562;27.636;2024-03-06T05:36:49;17.73;;;11.10;;
7669;SDS011;3877;42.562;27.636;2024-03-06T05:39:16;20.47;;;11.23;;
7669;SDS011;3877;42.562;27.636;2024-03-06T05:41:43;21.20;;;11.30;;
7669;SDS011;3877;42.562;27.636;2024-03-06T05:44:10;22.30;;;10.50;;
7669;SDS011;3877;42.562;27.636;2024-03-06T05:46:37;23.87;;;10.20;;
7669;SDS011;3877;42.562;27.636;2024-03-06T05:49:05;15.60;;;8.83;;
7669;SDS011;3877;42.562;27.636;2024-03-06T05:51:33;18.83;;;10.07;;
7669;SDS011;3877;42.562;27.636;2024-03-06T05:54:00;18.30;;;9.40;;
7669;SDS011;3877;42.562;27.636;2024-03-06T05:56:27;19.80;;;9.50;;
7669;SDS011;3877;42.562;27.636;2024-03-06T05:58:54;16.80;;;9.77;;
7669;SDS011;3877;42.562;27.636;2024-03-06T06:01:20;24.33;;;9.40;;
7669;SDS011;3877;42.562;27.636;2024-03-06T06:03:47;16.07;;;8.67;;
7669;SDS011;3877;42.562;27.636;2024-03-06T06:06:16;19.37;;;9.63;;
7669;SDS011;3877;42.562;27.636;2024-03-06T06:08:44;18.07;;;9.00;;
7669;SDS011;3877;42.562;27.636;2024-03-06T06:11:11;16.27;;;9.37;;
7669;SDS011;3877;42.562;27.636;2024-03-06T06:13:38;16.27;;;9.10;;
7669;SDS011;3877;42.562;27.636;2024-03-06T06:16:06;18.40;;;9.37;;
7669;SDS011;3877;42.562;27.636;2024-03-06T06:18:33;22.13;;;10.37;;
7669;SDS011;3877;42.562;27.636;2024-03-06T06:21:00;21.73;;;9.23;;
7669;SDS011;3877;42.562;27.636;2024-03-06T06:23:31;25.17;;;11.70;;
7669;SDS011;3877;42.562;27.636;2024-03-06T06:25:58;20.07;;;9.20;;
7669;SDS011;3877;42.562;27.636;2024-03-06T06:28:25;18.00;;;9.40;;
7669;SDS011;3877;42.562;27.636;2024-03-06T06:30:52;24.87;;;9.23;;
7669;SDS011;3877;42.562;27.636;2024-03-06T06:33:19;22.13;;;11.13;;
7669;SDS011;3877;42.562;27.636;2024-03-06T06:35:46;19.30;;;10.20;;
7669;SDS011;3877;42.562;27.636;2024-03-06T06:38:13;20.53;;;10.43;;
7669;SDS011;3877;42.562;27.636;2024-03-06T06:40:41;16.87;;;9.97;;
7669;SDS011;3877;42.562;27.636;2024-03-06T06:43:09;18.87;;;10.83;;
7669;SDS011;3877;42.562;27.636;2024-03-06T06:45:36;27.83;;;11.87;;
7669;SDS011;3877;42.562;27.636;2024-03-06T06:48:03;19.10;;;11.10;;
7669;SDS011;3877;42.562;27.636;2024-03-06T06:50:30;20.47;;;10.80;;
7669;SDS011;3877;42.562;27.636;2024-03-06T06:52:58;23.87;;;12.03;;
7669;SDS011;3877;42.562;27.636;2024-03-06T06:55:26;19.80;;;11.20;;
7669;SDS011;3877;42.562;27.636;2024-03-06T06:57:54;23.53;;;12.60;;
7669;SDS011;3877;42.562;27.636;2024-03-06T07:00:22;26.77;;;11.83;;
7669;SDS011;3877;42.562;27.636;2024-03-06T07:02:50;20.10;;;10.33;;
7669;SDS011;3877;42.562;27.636;2024-03-06T07:05:17;21.40;;;11.20;;
7669;SDS011;3877;42.562;27.636;2024-03-06T07:07:44;25.40;;;10.57;;
7669;SDS011;3877;42.562;27.636;2024-03-06T07:10:11;26.60;;;12.57;;
7669;SDS011;3877;42.562;27.636;2024-03-06T07:12:38;20.50;;;11.07;;
7669;SDS011;3877;42.562;27.636;2024-03-06T07:15:07;22.77;;;12.73;;
7669;SDS011;3877;42.562;27.636;2024-03-06T07:17:34;20.57;;;12.53;;
7669;SDS011;3877;42.562;27.636;2024-03-06T07:20:01;25.87;;;13.27;;
7669;SDS011;3877;42.562;27.636;2024-03-06T07:22:30;26.80;;;11.33;;
7669;SDS011;3877;42.562;27.636;2024-03-06T07:24:59;21.43;;;11.67;;
7669;SDS011;3877;42.562;27.636;2024-03-06T07:27:26;25.63;;;13.27;;
7669;SDS011;3877;42.562;27.636;2024-03-06T07:29:53;26.37;;;11.93;;
7669;SDS011;3877;42.562;27.636;2024-03-06T07:32:22;22.23;;;12.10;;
7669;SDS011;3877;42.562;27.636;2024-03-06T07:34:49;22.43;;;10.90;;
7669;SDS011;3877;42.562;27.636;2024-03-06T07:37:16;24.50;;;13.30;;
7669;SDS011;3877;42.562;27.636;2024-03-06T07:39:43;24.97;;;12.73;;
7669;SDS011;3877;42.562;27.636;2024-03-06T07:42:11;22.13;;;12.83;;
7669;SDS011;3877;42.562;27.636;2024-03-06T07:44:38;24.70;;;12.63;;
7669;SDS011;3877;42.562;27.636;2024-03-06T07:47:06;23.87;;;13.50;;
7669;SDS011;3877;42.562;27.636;2024-03-06T07:49:35;24.67;;;13.63;;
7669;SDS011;3877;42.562;27.636;2024-03-06T07:52:02;19.70;;;12.13;;
7669;SDS011;3877;42.562;27.636;2024-03-06T07:54:29;21.90;;;11.70;;
7669;SDS011;3877;42.562;27.636;2024-03-06T07:56:58;20.93;;;11.67;;
7669;SDS011;3877;42.562;27.636;2024-03-06T07:59:25;19.80;;;10.80;;
7669;SDS011;3877;42.562;27.636;2024-03-06T08:01:52;20.80;;;10.83;;
7669;SDS011;3877;42.562;27.636;2024-03-06T08:04:21;29.43;;;14.20;;
7669;SDS011;3877;42.562;27.636;2024-03-06T08:06:50;24.43;;;11.93;;
7669;SDS011;3877;42.562;27.636;2024-03-06T08:09:17;20.47;;;11.77;;
7669;SDS011;3877;42.562;27.636;2024-03-06T08:11:45;21.87;;;11.33;;
7669;SDS011;3877;42.562;27.636;2024-03-06T08:14:12;20.57;;;11.97;;
7669;SDS011;3877;42.562;27.636;2024-03-06T08:16:40;18.47;;;10.90;;
7669;SDS011;3877;42.562;27.636;2024-03-06T08:19:07;23.03;;;12.50;;
7669;SDS011;3877;42.562;27.636;2024-03-06T08:21:35;24.70;;;11.57;;
7669;SDS011;3877;42.562;27.636;2024-03-06T08:24:04;24.73;;;13.30;;
7669;SDS011;3877;42.562;27.636;2024-03-06T08:26:31;18.33;;;10.00;;
7669;SDS011;3877;42.562;27.636;2024-03-06T08:28:57;23.03;;;11.10;;
7669;SDS011;3877;42.562;27.636;2024-03-06T08:31:25;20.80;;;11.57;;
7669;SDS011;3877;42.562;27.636;2024-03-06T08:33:52;19.80;;;10.60;;
7669;SDS011;3877;42.562;27.636;2024-03-06T08:36:19;17.23;;;9.57;;
7669;SDS011;3877;42.562;27.636;2024-03-06T08:38:46;19.00;;;9.63;;
7669;SDS011;3877;42.562;27.636;2024-03-06T08:41:15;17.73;;;11.70;;
7669;SDS011;3877;42.562;27.636;2024-03-06T08:43:42;20.27;;;12.10;;
7669;SDS011;3877;42.562;27.636;2024-03-06T08:46:09;21.13;;;12.07;;
7669;SDS011;3877;42.562;27.636;2024-03-06T08:48:37;19.63;;;11.13;;
7669;SDS011;3877;42.562;27.636;2024-03-06T08:51:04;27.10;;;12.73;;
7669;SDS011;3877;42.562;27.636;2024-03-06T08:53:36;19.07;;;12.13;;
7669;SDS011;3877;42.562;27.636;2024-03-06T08:56:03;17.70;;;10.97;;
7669;SDS011;3877;42.562;27.636;2024-03-06T08:58:32;20.43;;;11.83;;
7669;SDS011;3877;42.562;27.636;2024-03-06T09:00:59;22.80;;;12.33;;
7669;SDS011;3877;42.562;27.636;2024-03-06T09:03:26;23.00;;;12.10;;
7669;SDS011;3877;42.562;27.636;2024-03-06T09:05:53;24.87;;;12.53;;
7669;SDS011;3877;42.562;27.636;2024-03-06T09:08:19;23.63;;;12.57;;
7669;SDS011;3877;42.562;27.636;2024-03-06T09:10:46;23.03;;;12.50;;
7669;SDS011;3877;42.562;27.636;2024-03-06T09:13:14;22.93;;;13.47;;
7669;SDS011;3877;42.562;27.636;2024-03-06T09:15:42;20.50;;;12.63;;
7669;SDS011;3877;42.562;27.636;2024-03-06T09:18:09;19.67;;;12.27;;
7669;SDS011;3877;42.562;27.636;2024-03-06T09:20:37;19.20;;;12.20;;
7669;SDS011;3877;42.562;27.636;2024-03-06T09:23:04;25.60;;;12.27;;
7669;SDS011;3877;42.562;27.636;2024-03-06T09:25:31;21.73;;;12.13;;
7669;SDS011;3877;42.562;27.636;2024-03-06T09:27:58;21.17;;;11.73;;
7669;SDS011;3877;42.562;27.636;2024-03-06T09:30:30;23.63;;;11.87;;
7669;SDS011;3877;42.562;27.636;2024-03-06T09:32:58;19.40;;;10.93;;
7669;SDS011;3877;42.562;27.636;2024-03-06T09:35:25;24.40;;;12.57;;
7669;SDS011;3877;42.562;27.636;2024-03-06T09:37:52;21.30;;;12.43;;
7669;SDS011;3877;42.562;27.636;2024-03-06T09:40:22;21.00;;;12.47;;
7669;SDS011;3877;42.562;27.636;2024-03-06T09:42:49;15.67;;;11.73;;
7669;SDS011;3877;42.562;27.636;2024-03-06T09:45:16;17.30;;;10.97;;
7669;SDS011;3877;42.562;27.636;2024-03-06T09:47:45;24.40;;;11.53;;
7669;SDS011;3877;42.562;27.636;2024-03-06T09:50:14;21.27;;;11.83;;
7669;SDS011;3877;42.562;27.636;2024-03-06T09:52:46;25.10;;;12.17;;
7669;SDS011;3877;42.562;27.636;2024-03-06T09:55:15;20.10;;;11.90;;
7669;SDS011;3877;42.562;27.636;2024-03-06T09:57:42;23.33;;;11.80;;
7669;SDS011;3877;42.562;27.636;2024-03-06T10:00:10;19.37;;;10.90;;
7669;SDS011;3877;42.562;27.636;2024-03-06T10:02:39;18.17;;;11.23;;
7669;SDS011;3877;42.562;27.636;2024-03-06T10:05:21;22.17;;;10.63;;
7669;SDS011;3877;42.562;27.636;2024-03-06T10:07:48;19.93;;;10.77;;
7669;SDS011;3877;42.562;27.636;2024-03-06T10:10:16;19.90;;;11.63;;
7669;SDS011;3877;42.562;27.636;2024-03-06T10:12:44;17.37;;;10.60;;
7669;SDS011;3877;42.562;27.636;2024-03-06T10:15:13;19.33;;;11.43;;
7669;SDS011;3877;42.562;27.636;2024-03-06T10:17:40;26.60;;;12.00;;
7669;SDS011;3877;42.562;27.636;2024-03-06T10:20:17;18.20;;;11.77;;
7669;SDS011;3877;42.562;27.636;2024-03-06T10:22:48;23.60;;;11.10;;
7669;SDS011;3877;42.562;27.636;2024-03-06T10:25:17;19.17;;;11.70;;
7669;SDS011;3877;42.562;27.636;2024-03-06T10:27:45;19.83;;;10.90;;
7669;SDS011;3877;42.562;27.636;2024-03-06T10:30:13;18.93;;;11.60;;
7669;SDS011;3877;42.562;27.636;2024-03-06T10:32:41;27.37;;;11.23;;
7669;SDS011;3877;42.562;27.636;2024-03-06T10:35:17;15.80;;;10.57;;
7669;SDS011;3877;42.562;27.636;2024-03-06T10:37:45;24.00;;;12.40;;
7669;SDS011;3877;42.562;27.636;2024-03-06T10:40:14;28.10;;;12.93;;
7669;SDS011;3877;42.562;27.636;2024-03-06T10:42:42;26.50;;;12.80;;
7669;SDS011;3877;42.562;27.636;2024-03-06T10:45:11;21.53;;;12.90;;
7669;SDS011;3877;42.562;27.636;2024-03-06T10:47:40;26.90;;;11.80;;
7669;SDS011;3877;42.562;27.636;2024-03-06T10:50:07;26.63;;;11.90;;
7669;SDS011;3877;42.562;27.636;2024-03-06T10:52:36;19.90;;;11.93;;
7669;SDS011;3877;42.562;27.636;2024-03-06T10:55:03;26.13;;;13.33;;
7669;SDS011;3877;42.562;27.636;2024-03-06T10:57:33;23.13;;;11.33;;
7669;SDS011;3877;42.562;27.636;2024-03-06T11:00:01;21.03;;;12.10;;
7669;SDS011;3877;42.562;27.636;2024-03-06T11:02:29;18.47;;;11.73;;
7669;SDS011;3877;42.562;27.636;2024-03-06T11:04:56;19.60;;;11.80;;
7669;SDS011;3877;42.562;27.636;2024-03-06T11:07:23;23.80;;;11.77;;
7669;SDS011;3877;42.562;27.636;2024-03-06T11:09:50;20.97;;;11.63;;
7669;SDS011;3877;42.562;27.636;2024-03-06T11:15:15;17.00;;;10.97;;
7669;SDS011;3877;42.562;27.636;2024-03-06T11:17:43;20.87;;;11.97;;
7669;SDS011;3877;42.562;27.636;2024-03-06T11:20:14;21.60;;;13.37;;
7669;SDS011;3877;42.562;27.636;2024-03-06T11:28:19;19.23;;;10.70;;
7669;SDS011;3877;42.562;27.636;2024-03-06T11:30:49;21.63;;;11.30;;
7669;SDS011;3877;42.562;27.636;2024-03-06T11:33:23;18.88;;;11.52;;
7669;SDS011;3877;42.562;27.636;2024-03-06T11:38:31;21.87;;;11.13;;
7669;SDS011;3877;42.562;27.636;2024-03-06T11:40:59;20.63;;;12.13;;
7669;SDS011;3877;42.562;27.636;2024-03-06T11:43:26;20.43;;;11.13;;
7669;SDS011;3877;42.562;27.636;2024-03-06T11:46:05;18.93;;;11.40;;
7669;SDS011;3877;42.562;27.636;2024-03-06T11:48:34;25.03;;;12.80;;
7669;SDS011;3877;42.562;27.636;2024-03-06T11:51:01;20.77;;;11.27;;
7669;SDS011;3877;42.562;27.636;2024-03-06T11:53:30;21.80;;;11.40;;
7669;SDS011;3877;42.562;27.636;2024-03-06T11:56:07;25.93;;;11.63;;
7669;SDS011;3877;42.562;27.636;2024-03-06T11:58:34;19.17;;;11.20;;
7669;SDS011;3877;42.562;27.636;2024-03-06T12:01:03;20.43;;;11.30;;
7669;SDS011;3877;42.562;27.636;2024-03-06T12:03:30;23.83;;;11.83;;
7669;SDS011;3877;42.562;27.636;2024-03-06T12:05:57;17.40;;;11.37;;
7669;SDS011;3877;42.562;27.636;2024-03-06T12:08:25;19.73;;;11.17;;
7669;SDS011;3877;42.562;27.636;2024-03-06T12:10:52;19.20;;;11.53;;
7669;SDS011;3877;42.562;27.636;2024-03-06T12:13:21;23.00;;;10.53;;
7669;SDS011;3877;42.562;27.636;2024-03-06T12:15:48;19.50;;;10.50;;
7669;SDS011;3877;42.562;27.636;2024-03-06T12:18:18;18.20;;;10.07;;
7669;SDS011;3877;42.562;27.636;2024-03-06T12:20:46;23.80;;;10.87;;
7669;SDS011;3877;42.562;27.636;2024-03-06T12:23:20;17.93;;;9.03;;
7669;SDS011;3877;42.562;27.636;2024-03-06T12:26:01;15.27;;;8.53;;
7669;SDS011;3877;42.562;27.636;2024-03-06T12:28:28;14.97;;;8.57;;
7669;SDS011;3877;42.562;27.636;2024-03-06T12:30:55;16.97;;;8.80;;
7669;SDS011;3877;42.562;27.636;2024-03-06T12:33:27;12.13;;;8.80;;
7669;SDS011;3877;42.562;27.636;2024-03-06T12:36:04;17.77;;;9.30;;
7669;SDS011;3877;42.562;27.636;2024-03-06T12:38:32;16.17;;;8.47;;
7669;SDS011;3877;42.562;27.636;2024-03-06T12:40:59;15.57;;;9.90;;
7669;SDS011;3877;42.562;27.636;2024-03-06T12:43:26;14.97;;;8.90;;
7669;SDS011;3877;42.562;27.636;2024-03-06T12:45:54;13.47;;;8.87;;
7669;SDS011;3877;42.562;27.636;2024-03-06T12:48:22;17.43;;;8.23;;
7669;SDS011;3877;42.562;27.636;2024-03-06T12:50:51;15.90;;;7.20;;
7669;SDS011;3877;42.562;27.636;2024-03-06T12:53:19;13.47;;;8.07;;
7669;SDS011;3877;42.562;27.636;2024-03-06T12:55:46;15.53;;;8.40;;
7669;SDS011;3877;42.562;27.636;2024-03-06T12:58:14;14.53;;;8.37;;
7669;SDS011;3877;42.562;27.636;2024-03-06T13:00:41;20.07;;;8.90;;
7669;SDS011;3877;42.562;27.636;2024-03-06T13:03:09;22.27;;;9.20;;
7669;SDS011;3877;42.562;27.636;2024-03-06T13:05:36;15.50;;;8.60;;
7669;SDS011;3877;42.562;27.636;2024-03-06T13:08:05;17.27;;;8.00;;
7669;SDS011;3877;42.562;27.636;2024-03-06T13:10:32;16.27;;;8.87;;
7669;SDS011;3877;42.562;27.636;2024-03-06T13:13:01;11.13;;;8.27;;
7669;SDS011;3877;42.562;27.636;2024-03-06T13:15:28;22.53;;;8.90;;
7669;SDS011;3877;42.562;27.636;2024-03-06T13:17:55;16.97;;;8.27;;
7669;SDS011;3877;42.562;27.636;2024-03-06T13:20:22;19.60;;;9.47;;
7669;SDS011;3877;42.562;27.636;2024-03-06T13:22:49;17.03;;;9.13;;
7669;SDS011;3877;42.562;27.636;2024-03-06T13:25:17;22.67;;;8.90;;
7669;SDS011;3877;42.562;27.636;2024-03-06T13:27:46;14.37;;;8.70;;
7669;SDS011;3877;42.562;27.636;2024-03-06T13:30:13;21.17;;;13.47;;
7669;SDS011;3877;42.562;27.636;2024-03-06T13:32:40;17.03;;;8.37;;
7669;SDS011;3877;42.562;27.636;2024-03-06T13:35:08;18.77;;;8.40;;
7669;SDS011;3877;42.562;27.636;2024-03-06T13:37:37;15.10;;;8.80;;
7669;SDS011;3877;42.562;27.636;2024-03-06T13:40:05;14.77;;;8.07;;
7669;SDS011;3877;42.562;27.636;2024-03-06T13:42:34;14.80;;;8.03;;
7669;SDS011;3877;42.562;27.636;2024-03-06T13:45:00;17.13;;;7.27;;
7669;SDS011;3877;42.562;27.636;2024-03-06T13:47:27;23.80;;;8.97;;
7669;SDS011;3877;42.562;27.636;2024-03-06T13:49:55;18.73;;;9.00;;
7669;SDS011;3877;42.562;27.636;2024-03-06T13:52:21;20.53;;;9.27;;
7669;SDS011;3877;42.562;27.636;2024-03-06T13:54:49;21.60;;;9.37;;
7669;SDS011;3877;42.562;27.636;2024-03-06T13:57:16;24.30;;;9.33;;
7669;SDS011;3877;42.562;27.636;2024-03-06T13:59:45;17.67;;;9.07;;
7669;SDS011;3877;42.562;27.636;2024-03-06T14:02:12;17.73;;;9.63;;
7669;SDS011;3877;42.562;27.636;2024-03-06T14:04:39;22.90;;;9.97;;
7669;SDS011;3877;42.562;27.636;2024-03-06T14:07:06;23.87;;;10.37;;
7669;SDS011;3877;42.562;27.636;2024-03-06T14:09:32;18.17;;;9.50;;
7669;SDS011;3877;42.562;27.636;2024-03-06T14:11:59;14.53;;;9.93;;
7669;SDS011;3877;42.562;27.636;2024-03-06T14:14:27;17.43;;;10.10;;
7669;SDS011;3877;42.562;27.636;2024-03-06T14:16:55;20.73;;;9.50;;
7669;SDS011;3877;42.562;27.636;2024-03-06T14:19:23;14.97;;;8.57;;
7669;SDS011;3877;42.562;27.636;2024-03-06T14:21:50;15.77;;;8.77;;
7669;SDS011;3877;42.562;27.636;2024-03-06T14:24:17;22.00;;;9.33;;
7669;SDS011;3877;42.562;27.636;2024-03-06T14:26:46;20.23;;;9.13;;
7669;SDS011;3877;42.562;27.636;2024-03-06T14:29:14;19.03;;;9.60;;
7669;SDS011;3877;42.562;27.636;2024-03-06T14:31:41;20.03;;;11.37;;
7669;SDS011;3877;42.562;27.636;2024-03-06T14:34:10;20.90;;;10.57;;
7669;SDS011;3877;42.562;27.636;2024-03-06T14:36:37;23.57;;;9.83;;
7669;SDS011;3877;42.562;27.636;2024-03-06T14:39:04;14.27;;;8.70;;
7669;SDS011;3877;42.562;27.636;2024-03-06T14:41:31;20.20;;;9.20;;
7669;SDS011;3877;42.562;27.636;2024-03-06T14:43:58;16.57;;;8.83;;
7669;SDS011;3877;42.562;27.636;2024-03-06T14:46:25;16.70;;;8.97;;
7669;SDS011;3877;42.562;27.636;2024-03-06T14:48:53;18.30;;;8.80;;
7669;SDS011;3877;42.562;27.636;2024-03-06T14:51:23;18.60;;;8.90;;
7669;SDS011;3877;42.562;27.636;2024-03-06T14:53:50;15.87;;;8.90;;
7669;SDS011;3877;42.562;27.636;2024-03-06T14:56:17;21.23;;;10.00;;
7669;SDS011;3877;42.562;27.636;2024-03-06T14:58:46;20.17;;;9.43;;